Bartlett, Texas
Current Conditions -  °F | °C
As of 6:55 AM on Thursday 23 Oct 2014 (Local Time) from KGRK Reporting Station
Overcast Overcast  
Wind Chill: 66°   Ceiling: 7500
Heat Index: 66°   Visibility: 7mi
Dew Point: 57°   Wind: 0mph
Humidity: 73%   Direction: NA
Pressure: 30.12"   Gusts: NA
Location:  30.79°N, 97.43°W
Report Text: KGRK 231155Z 00000KT 7SM BKN075 OVC090 19/14 A3012 RMK SLP199 52010
Loading
Personal Weather Stations






























Interactive Weather Map
Tropical Storm Tracking
New forecast layout! Learn more

10-Day Weather Forecast

Advertisements
Track Severe Weather on mobile